sensor_id;sensor_type;location;lat;lon;timestamp;pressure;altitude;pressure_sealevel;temperature;humidity
71948;BME280;63257;55.082;38.772;2023-06-14T00:01:06;100281.69;;;12.96;67.72
71948;BME280;63257;55.082;38.772;2023-06-14T00:03:33;100292.63;;;12.89;68.09
71948;BME280;63257;55.082;38.772;2023-06-14T00:05:59;100291.88;;;12.87;68.60
71948;BME280;63257;55.082;38.772;2023-06-14T00:08:25;100292.19;;;12.81;69.30
71948;BME280;63257;55.082;38.772;2023-06-14T00:10:51;100287.09;;;12.78;69.09
71948;BME280;63257;55.082;38.772;2023-06-14T00:13:18;100296.66;;;12.81;68.96
71948;BME280;63257;55.082;38.772;2023-06-14T00:15:44;100283.50;;;12.79;68.61
71948;BME280;63257;55.082;38.772;2023-06-14T00:18:10;100288.81;;;12.79;68.16
71948;BME280;63257;55.082;38.772;2023-06-14T00:20:37;100284.06;;;12.84;67.91
71948;BME280;63257;55.082;38.772;2023-06-14T00:23:03;100276.59;;;12.77;67.71
71948;BME280;63257;55.082;38.772;2023-06-14T00:25:29;100262.75;;;12.71;67.38
71948;BME280;63257;55.082;38.772;2023-06-14T00:27:56;100286.16;;;12.79;67.89
71948;BME280;63257;55.082;38.772;2023-06-14T00:30:22;100281.97;;;12.75;67.55
71948;BME280;63257;55.082;38.772;2023-06-14T00:32:48;100288.03;;;12.77;67.03
71948;BME280;63257;55.082;38.772;2023-06-14T00:35:17;100292.72;;;12.72;67.04
71948;BME280;63257;55.082;38.772;2023-06-14T00:37:43;100267.97;;;12.57;67.40
71948;BME280;63257;55.082;38.772;2023-06-14T00:40:09;100294.94;;;12.64;67.89
71948;BME280;63257;55.082;38.772;2023-06-14T00:42:35;100295.63;;;12.67;66.73
71948;BME280;63257;55.082;38.772;2023-06-14T00:45:01;100291.19;;;12.68;66.99
71948;BME280;63257;55.082;38.772;2023-06-14T00:47:32;100288.28;;;12.72;65.25
71948;BME280;63257;55.082;38.772;2023-06-14T00:49:58;100289.13;;;12.73;65.42
71948;BME280;63257;55.082;38.772;2023-06-14T00:52:26;100287.69;;;12.67;65.39
71948;BME280;63257;55.082;38.772;2023-06-14T00:54:52;100293.78;;;12.69;66.56
71948;BME280;63257;55.082;38.772;2023-06-14T00:57:19;100298.19;;;12.69;66.51
71948;BME280;63257;55.082;38.772;2023-06-14T00:59:48;100296.56;;;12.66;65.71
71948;BME280;63257;55.082;38.772;2023-06-14T01:02:14;100270.03;;;12.52;66.00
71948;BME280;63257;55.082;38.772;2023-06-14T01:04:43;100297.88;;;12.59;66.13
71948;BME280;63257;55.082;38.772;2023-06-14T01:07:47;100296.06;;;12.60;66.67
71948;BME280;63257;55.082;38.772;2023-06-14T01:13:17;100305.19;;;12.54;67.13
71948;BME280;63257;55.082;38.772;2023-06-14T01:15:46;100296.50;;;12.52;67.52
71948;BME280;63257;55.082;38.772;2023-06-14T01:18:13;100303.94;;;12.45;67.38
71948;BME280;63257;55.082;38.772;2023-06-14T01:20:47;100299.84;;;12.39;67.59
71948;BME280;63257;55.082;38.772;2023-06-14T01:23:17;100296.84;;;12.30;67.63
71948;BME280;63257;55.082;38.772;2023-06-14T01:25:43;100291.97;;;12.22;68.10
71948;BME280;63257;55.082;38.772;2023-06-14T01:28:12;100280.31;;;12.09;68.28
71948;BME280;63257;55.082;38.772;2023-06-14T01:30:41;100295.78;;;12.16;68.67
71948;BME280;63257;55.082;38.772;2023-06-14T01:33:15;100289.13;;;12.09;68.97
71948;BME280;63257;55.082;38.772;2023-06-14T01:35:50;100246.78;;;11.76;69.01
71948;BME280;63257;55.082;38.772;2023-06-14T01:38:22;100278.34;;;11.96;67.99
71948;BME280;63257;55.082;38.772;2023-06-14T01:40:49;100297.00;;;12.11;68.24
71948;BME280;63257;55.082;38.772;2023-06-14T01:43:18;100275.03;;;12.09;67.09
71948;BME280;63257;55.082;38.772;2023-06-14T01:45:45;100279.47;;;12.08;68.33
71948;BME280;63257;55.082;38.772;2023-06-14T01:48:13;100288.34;;;12.07;68.61
71948;BME280;63257;55.082;38.772;2023-06-14T01:50:39;100267.75;;;11.96;69.01
71948;BME280;63257;55.082;38.772;2023-06-14T01:53:09;100293.03;;;12.02;69.10
71948;BME280;63257;55.082;38.772;2023-06-14T01:55:37;100270.91;;;11.87;69.61
71948;BME280;63257;55.082;38.772;2023-06-14T01:58:06;100273.16;;;11.77;69.42
71948;BME280;63257;55.082;38.772;2023-06-14T02:00:32;100291.56;;;11.96;69.57
71948;BME280;63257;55.082;38.772;2023-06-14T02:02:58;100294.66;;;12.04;69.75
71948;BME280;63257;55.082;38.772;2023-06-14T02:05:26;100295.09;;;12.13;68.52
71948;BME280;63257;55.082;38.772;2023-06-14T02:07:54;100287.69;;;12.19;68.72
71948;BME280;63257;55.082;38.772;2023-06-14T02:10:20;100292.66;;;12.26;67.62
71948;BME280;63257;55.082;38.772;2023-06-14T02:12:48;100267.13;;;12.25;67.34
71948;BME280;63257;55.082;38.772;2023-06-14T02:15:15;100300.25;;;12.48;67.01
71948;BME280;63257;55.082;38.772;2023-06-14T02:17:46;100292.06;;;12.52;67.14
71948;BME280;63257;55.082;38.772;2023-06-14T02:20:19;100280.81;;;12.49;67.42
71948;BME280;63257;55.082;38.772;2023-06-14T02:22:45;100289.66;;;12.64;67.52
71948;BME280;63257;55.082;38.772;2023-06-14T02:25:11;100294.44;;;12.73;66.98
71948;BME280;63257;55.082;38.772;2023-06-14T02:27:40;100284.94;;;12.69;66.66
71948;BME280;63257;55.082;38.772;2023-06-14T02:30:07;100301.59;;;12.87;66.00
71948;BME280;63257;55.082;38.772;2023-06-14T02:32:34;100310.03;;;12.94;64.97
71948;BME280;63257;55.082;38.772;2023-06-14T02:35:02;100299.00;;;13.01;65.25
71948;BME280;63257;55.082;38.772;2023-06-14T02:37:32;100300.53;;;13.05;65.22
71948;BME280;63257;55.082;38.772;2023-06-14T02:39:58;100298.22;;;13.15;63.89
71948;BME280;63257;55.082;38.772;2023-06-14T02:42:24;100308.19;;;13.26;64.28
71948;BME280;63257;55.082;38.772;2023-06-14T02:44:50;100299.63;;;13.37;64.06
71948;BME280;63257;55.082;38.772;2023-06-14T02:47:17;100302.69;;;13.45;63.40
71948;BME280;63257;55.082;38.772;2023-06-14T02:49:44;100296.91;;;13.53;63.19
71948;BME280;63257;55.082;38.772;2023-06-14T02:52:14;100301.25;;;13.54;63.12
71948;BME280;63257;55.082;38.772;2023-06-14T02:54:40;100312.38;;;13.61;62.86
71948;BME280;63257;55.082;38.772;2023-06-14T02:57:08;100298.06;;;13.78;62.41
71948;BME280;63257;55.082;38.772;2023-06-14T02:59:37;100302.81;;;13.87;62.04
71948;BME280;63257;55.082;38.772;2023-06-14T03:02:04;100289.47;;;14.03;62.17
71948;BME280;63257;55.082;38.772;2023-06-14T03:04:31;100304.78;;;14.27;61.35
71948;BME280;63257;55.082;38.772;2023-06-14T03:07:06;100297.19;;;14.35;60.70
71948;BME280;63257;55.082;38.772;2023-06-14T03:09:36;100300.00;;;14.46;60.32
71948;BME280;63257;55.082;38.772;2023-06-14T03:12:04;100289.66;;;14.56;59.52
71948;BME280;63257;55.082;38.772;2023-06-14T03:14:32;100287.94;;;14.69;58.97
71948;BME280;63257;55.082;38.772;2023-06-14T03:16:58;100290.00;;;14.79;58.66
71948;BME280;63257;55.082;38.772;2023-06-14T03:19:24;100293.63;;;14.90;58.61
71948;BME280;63257;55.082;38.772;2023-06-14T03:21:53;100288.16;;;14.93;57.35
71948;BME280;63257;55.082;38.772;2023-06-14T03:24:24;100287.00;;;14.98;57.66
71948;BME280;63257;55.082;38.772;2023-06-14T03:26:53;100278.84;;;14.86;57.56
71948;BME280;63257;55.082;38.772;2023-06-14T03:29:19;100274.41;;;14.87;57.90
71948;BME280;63257;55.082;38.772;2023-06-14T03:32:02;100283.69;;;14.94;57.68
71948;BME280;63257;55.082;38.772;2023-06-14T03:34:41;100282.16;;;14.90;57.50
71948;BME280;63257;55.082;38.772;2023-06-14T03:37:10;100277.41;;;14.95;57.89
71948;BME280;63257;55.082;38.772;2023-06-14T03:39:36;100278.59;;;15.04;57.88
71948;BME280;63257;55.082;38.772;2023-06-14T03:42:03;100265.41;;;15.02;57.14
71948;BME280;63257;55.082;38.772;2023-06-14T03:44:29;100250.13;;;15.06;57.96
71948;BME280;63257;55.082;38.772;2023-06-14T03:46:55;100274.50;;;15.13;57.90
71948;BME280;63257;55.082;38.772;2023-06-14T03:49:22;100274.81;;;15.21;59.15
71948;BME280;63257;55.082;38.772;2023-06-14T03:51:48;100272.34;;;15.18;58.42
71948;BME280;63257;55.082;38.772;2023-06-14T03:54:19;100266.41;;;15.14;58.78
71948;BME280;63257;55.082;38.772;2023-06-14T03:56:46;100271.00;;;15.25;58.92
71948;BME280;63257;55.082;38.772;2023-06-14T03:59:12;100270.78;;;15.28;58.22
71948;BME280;63257;55.082;38.772;2023-06-14T04:01:38;100279.09;;;15.36;58.04
71948;BME280;63257;55.082;38.772;2023-06-14T04:04:13;100268.25;;;15.39;58.62
71948;BME280;63257;55.082;38.772;2023-06-14T04:11:24;100266.44;;;15.66;58.05
71948;BME280;63257;55.082;38.772;2023-06-14T04:13:52;100245.16;;;15.66;56.83
71948;BME280;63257;55.082;38.772;2023-06-14T04:16:20;100269.97;;;15.92;56.33
71948;BME280;63257;55.082;38.772;2023-06-14T04:18:46;100238.69;;;15.83;55.91
71948;BME280;63257;55.082;38.772;2023-06-14T04:21:14;100221.22;;;15.78;55.86
71948;BME280;63257;55.082;38.772;2023-06-14T04:23:40;100268.69;;;16.10;56.06
71948;BME280;63257;55.082;38.772;2023-06-14T04:26:10;100268.09;;;16.18;56.60
71948;BME280;63257;55.082;38.772;2023-06-14T04:28:36;100270.22;;;16.26;56.53
71948;BME280;63257;55.082;38.772;2023-06-14T04:31:07;100279.16;;;16.38;56.31
71948;BME280;63257;55.082;38.772;2023-06-14T04:33:37;100266.34;;;16.43;55.47
71948;BME280;63257;55.082;38.772;2023-06-14T04:36:14;100265.97;;;16.60;54.78
71948;BME280;63257;55.082;38.772;2023-06-14T04:38:43;100266.00;;;16.72;53.13
71948;BME280;63257;55.082;38.772;2023-06-14T04:41:11;100257.09;;;16.84;51.37
71948;BME280;63257;55.082;38.772;2023-06-14T04:43:38;100261.50;;;17.09;51.33
71948;BME280;63257;55.082;38.772;2023-06-14T04:46:05;100265.03;;;17.21;50.25
71948;BME280;63257;55.082;38.772;2023-06-14T04:48:39;100245.28;;;17.24;49.59
71948;BME280;63257;55.082;38.772;2023-06-14T04:51:09;100247.63;;;17.40;49.62
71948;BME280;63257;55.082;38.772;2023-06-14T04:53:36;100240.25;;;17.43;49.28
71948;BME280;63257;55.082;38.772;2023-06-14T04:56:03;100251.41;;;17.60;48.79
71948;BME280;63257;55.082;38.772;2023-06-14T04:58:30;100251.66;;;17.68;48.63
71948;BME280;63257;55.082;38.772;2023-06-14T05:00:58;100243.91;;;17.76;48.51
71948;BME280;63257;55.082;38.772;2023-06-14T05:03:25;100254.69;;;17.75;48.11
71948;BME280;63257;55.082;38.772;2023-06-14T05:05:52;100250.72;;;17.80;48.21
71948;BME280;63257;55.082;38.772;2023-06-14T05:08:20;100253.72;;;17.87;46.64
71948;BME280;63257;55.082;38.772;2023-06-14T05:10:48;100259.09;;;17.99;47.69
71948;BME280;63257;55.082;38.772;2023-06-14T05:13:14;100252.75;;;17.88;46.60
71948;BME280;63257;55.082;38.772;2023-06-14T05:15:40;100264.06;;;18.03;47.05
71948;BME280;63257;55.082;38.772;2023-06-14T05:18:06;100247.19;;;17.91;46.01
71948;BME280;63257;55.082;38.772;2023-06-14T05:20:35;100262.38;;;18.13;46.47
71948;BME280;63257;55.082;38.772;2023-06-14T05:23:02;100264.91;;;18.26;45.78
71948;BME280;63257;55.082;38.772;2023-06-14T05:25:28;100265.63;;;18.40;45.84
71948;BME280;63257;55.082;38.772;2023-06-14T05:27:54;100256.72;;;18.39;45.46
71948;BME280;63257;55.082;38.772;2023-06-14T05:30:20;100253.94;;;18.41;44.86
71948;BME280;63257;55.082;38.772;2023-06-14T05:32:46;100258.06;;;18.45;44.72
71948;BME280;63257;55.082;38.772;2023-06-14T05:35:12;100256.81;;;18.49;44.63
71948;BME280;63257;55.082;38.772;2023-06-14T05:37:38;100252.69;;;18.56;44.64
71948;BME280;63257;55.082;38.772;2023-06-14T05:40:05;100260.31;;;18.61;44.30
71948;BME280;63257;55.082;38.772;2023-06-14T05:42:32;100257.16;;;18.67;44.31
71948;BME280;63257;55.082;38.772;2023-06-14T05:44:58;100242.59;;;18.60;44.16
71948;BME280;63257;55.082;38.772;2023-06-14T05:47:24;100245.53;;;18.57;43.03
71948;BME280;63257;55.082;38.772;2023-06-14T05:49:54;100249.59;;;18.72;43.64
71948;BME280;63257;55.082;38.772;2023-06-14T05:52:20;100249.66;;;18.82;43.59
71948;BME280;63257;55.082;38.772;2023-06-14T05:54:47;100246.28;;;18.91;43.85
71948;BME280;63257;55.082;38.772;2023-06-14T05:57:12;100247.53;;;19.08;43.77
71948;BME280;63257;55.082;38.772;2023-06-14T05:59:38;100251.13;;;19.19;43.75
71948;BME280;63257;55.082;38.772;2023-06-14T06:02:04;100262.63;;;19.30;43.81
71948;BME280;63257;55.082;38.772;2023-06-14T06:04:31;100254.31;;;19.33;43.88
71948;BME280;63257;55.082;38.772;2023-06-14T06:06:56;100260.16;;;19.39;41.74
71948;BME280;63257;55.082;38.772;2023-06-14T06:09:22;100261.31;;;19.46;42.15
71948;BME280;63257;55.082;38.772;2023-06-14T06:11:48;100262.47;;;19.53;42.60
71948;BME280;63257;55.082;38.772;2023-06-14T06:14:14;100255.72;;;19.59;41.06
71948;BME280;63257;55.082;38.772;2023-06-14T06:16:40;100267.50;;;19.67;40.02
71948;BME280;63257;55.082;38.772;2023-06-14T06:19:06;100267.09;;;19.72;40.64
71948;BME280;63257;55.082;38.772;2023-06-14T06:21:32;100260.22;;;19.79;40.65
71948;BME280;63257;55.082;38.772;2023-06-14T06:24:02;100259.38;;;19.79;39.13
71948;BME280;63257;55.082;38.772;2023-06-14T06:26:31;100258.63;;;19.77;39.73
71948;BME280;63257;55.082;38.772;2023-06-14T06:29:00;100262.47;;;19.74;38.12
71948;BME280;63257;55.082;38.772;2023-06-14T06:31:27;100267.75;;;19.86;38.38
71948;BME280;63257;55.082;38.772;2023-06-14T06:33:54;100260.41;;;19.88;36.90
71948;BME280;63257;55.082;38.772;2023-06-14T06:36:20;100253.94;;;19.90;37.48
71948;BME280;63257;55.082;38.772;2023-06-14T06:38:47;100246.31;;;19.86;36.50
71948;BME280;63257;55.082;38.772;2023-06-14T06:41:13;100252.31;;;19.99;36.54
71948;BME280;63257;55.082;38.772;2023-06-14T06:43:39;100247.28;;;20.15;37.88
71948;BME280;63257;55.082;38.772;2023-06-14T06:46:06;100250.38;;;20.21;36.88
71948;BME280;63257;55.082;38.772;2023-06-14T06:48:32;100246.44;;;20.25;36.00
71948;BME280;63257;55.082;38.772;2023-06-14T06:50:58;100259.00;;;20.24;35.14
71948;BME280;63257;55.082;38.772;2023-06-14T06:53:24;100246.56;;;20.13;35.95
71948;BME280;63257;55.082;38.772;2023-06-14T06:55:49;100264.94;;;20.28;35.64
71948;BME280;63257;55.082;38.772;2023-06-14T06:58:15;100250.25;;;20.22;35.00
71948;BME280;63257;55.082;38.772;2023-06-14T07:00:41;100248.31;;;20.34;35.16
71948;BME280;63257;55.082;38.772;2023-06-14T07:03:07;100245.78;;;20.32;35.64
71948;BME280;63257;55.082;38.772;2023-06-14T07:05:33;100251.16;;;20.42;34.49
71948;BME280;63257;55.082;38.772;2023-06-14T07:07:59;100258.06;;;20.35;34.81
71948;BME280;63257;55.082;38.772;2023-06-14T07:10:25;100261.88;;;20.42;35.30
71948;BME280;63257;55.082;38.772;2023-06-14T07:12:51;100244.66;;;20.35;34.93
71948;BME280;63257;55.082;38.772;2023-06-14T07:15:17;100251.88;;;20.44;34.93
71948;BME280;63257;55.082;38.772;2023-06-14T07:17:43;100259.50;;;20.59;35.88
71948;BME280;63257;55.082;38.772;2023-06-14T07:20:09;100248.91;;;20.57;35.95
71948;BME280;63257;55.082;38.772;2023-06-14T07:22:40;100257.72;;;20.69;35.55
71948;BME280;63257;55.082;38.772;2023-06-14T07:25:10;100234.81;;;20.65;35.37
71948;BME280;63257;55.082;38.772;2023-06-14T07:27:43;100244.31;;;20.69;35.88
71948;BME280;63257;55.082;38.772;2023-06-14T07:30:10;100235.50;;;20.57;35.07
71948;BME280;63257;55.082;38.772;2023-06-14T07:32:36;100234.41;;;20.70;34.54
71948;BME280;63257;55.082;38.772;2023-06-14T07:35:02;100242.75;;;20.86;34.75
71948;BME280;63257;55.082;38.772;2023-06-14T07:37:30;100242.75;;;20.86;34.40
71948;BME280;63257;55.082;38.772;2023-06-14T07:39:56;100222.84;;;20.89;34.56
71948;BME280;63257;55.082;38.772;2023-06-14T07:42:22;100229.03;;;21.09;35.20
71948;BME280;63257;55.082;38.772;2023-06-14T07:44:48;100229.03;;;21.18;34.94
71948;BME280;63257;55.082;38.772;2023-06-14T07:47:16;100229.44;;;21.24;34.65
71948;BME280;63257;55.082;38.772;2023-06-14T07:49:42;100214.88;;;21.26;34.70
71948;BME280;63257;55.082;38.772;2023-06-14T07:52:09;100219.69;;;21.32;34.52
71948;BME280;63257;55.082;38.772;2023-06-14T07:54:35;100222.97;;;21.16;33.94
71948;BME280;63257;55.082;38.772;2023-06-14T07:57:10;100228.00;;;21.39;34.57
71948;BME280;63257;55.082;38.772;2023-06-14T07:59:36;100225.03;;;21.42;34.31
71948;BME280;63257;55.082;38.772;2023-06-14T08:02:02;100222.63;;;21.39;33.76
71948;BME280;63257;55.082;38.772;2023-06-14T08:04:28;100229.13;;;21.46;33.86
71948;BME280;63257;55.082;38.772;2023-06-14T08:06:53;100218.06;;;21.49;34.10
71948;BME280;63257;55.082;38.772;2023-06-14T08:09:19;100217.09;;;21.50;33.88
71948;BME280;63257;55.082;38.772;2023-06-14T08:11:45;100230.06;;;21.65;33.63
71948;BME280;63257;55.082;38.772;2023-06-14T08:14:17;100222.56;;;21.68;34.11
71948;BME280;63257;55.082;38.772;2023-06-14T08:16:43;100218.78;;;21.61;32.70
71948;BME280;63257;55.082;38.772;2023-06-14T08:19:09;100214.81;;;21.65;33.58
71948;BME280;63257;55.082;38.772;2023-06-14T08:21:35;100217.25;;;21.59;33.43
71948;BME280;63257;55.082;38.772;2023-06-14T08:24:05;100208.88;;;21.52;33.58
71948;BME280;63257;55.082;38.772;2023-06-14T08:26:34;100225.28;;;21.59;33.57
71948;BME280;63257;55.082;38.772;2023-06-14T08:28:59;100218.03;;;21.69;34.15
71948;BME280;63257;55.082;38.772;2023-06-14T08:31:25;100215.88;;;21.82;33.65
71948;BME280;63257;55.082;38.772;2023-06-14T08:33:53;100222.31;;;21.62;32.35
71948;BME280;63257;55.082;38.772;2023-06-14T08:36:18;100222.00;;;21.65;32.06
71948;BME280;63257;55.082;38.772;2023-06-14T08:38:45;100219.78;;;21.60;33.35
71948;BME280;63257;55.082;38.772;2023-06-14T08:41:12;100218.91;;;21.69;33.97
71948;BME280;63257;55.082;38.772;2023-06-14T08:43:39;100210.09;;;21.77;33.73
71948;BME280;63257;55.082;38.772;2023-06-14T08:46:06;100203.41;;;21.81;34.43
71948;BME280;63257;55.082;38.772;2023-06-14T08:48:34;100212.28;;;21.64;32.99
71948;BME280;63257;55.082;38.772;2023-06-14T08:51:00;100196.38;;;21.80;34.49
71948;BME280;63257;55.082;38.772;2023-06-14T08:53:30;100213.06;;;22.02;34.64
71948;BME280;63257;55.082;38.772;2023-06-14T08:56:02;100214.88;;;22.11;34.30
71948;BME280;63257;55.082;38.772;2023-06-14T08:58:30;100208.28;;;22.24;34.21
71948;BME280;63257;55.082;38.772;2023-06-14T09:00:57;100222.41;;;22.35;33.66
71948;BME280;63257;55.082;38.772;2023-06-14T09:03:24;100195.75;;;22.14;33.97
71948;BME280;63257;55.082;38.772;2023-06-14T09:05:57;100191.16;;;22.25;33.26
71948;BME280;63257;55.082;38.772;2023-06-14T09:08:26;100184.06;;;22.06;33.56
71948;BME280;63257;55.082;38.772;2023-06-14T09:10:52;100188.78;;;21.94;33.83
71948;BME280;63257;55.082;38.772;2023-06-14T09:13:18;100190.59;;;22.03;34.28
71948;BME280;63257;55.082;38.772;2023-06-14T09:15:44;100186.72;;;22.33;34.47
71948;BME280;63257;55.082;38.772;2023-06-14T09:18:10;100186.06;;;22.49;33.95
71948;BME280;63257;55.082;38.772;2023-06-14T09:20:37;100190.47;;;22.50;33.44
71948;BME280;63257;55.082;38.772;2023-06-14T09:23:02;100183.06;;;22.52;32.94
71948;BME280;63257;55.082;38.772;2023-06-14T09:25:30;100188.84;;;22.40;32.70
71948;BME280;63257;55.082;38.772;2023-06-14T09:27:56;100190.00;;;22.09;32.93
71948;BME280;63257;55.082;38.772;2023-06-14T09:30:22;100181.91;;;22.37;33.27
71948;BME280;63257;55.082;38.772;2023-06-14T09:32:48;100180.00;;;22.47;31.80
71948;BME280;63257;55.082;38.772;2023-06-14T09:35:17;100182.72;;;22.19;32.57
71948;BME280;63257;55.082;38.772;2023-06-14T09:37:47;100166.13;;;22.24;33.06
71948;BME280;63257;55.082;38.772;2023-06-14T09:40:22;100172.63;;;22.67;32.48
71948;BME280;63257;55.082;38.772;2023-06-14T09:42:48;100179.31;;;22.63;31.38
71948;BME280;63257;55.082;38.772;2023-06-14T09:45:18;100174.59;;;22.65;31.02
71948;BME280;63257;55.082;38.772;2023-06-14T09:47:49;100166.41;;;22.67;31.46
71948;BME280;63257;55.082;38.772;2023-06-14T09:50:16;100162.97;;;22.83;31.58
71948;BME280;63257;55.082;38.772;2023-06-14T09:52:52;100156.13;;;22.88;30.68
71948;BME280;63257;55.082;38.772;2023-06-14T09:55:19;100157.72;;;22.99;30.61
71948;BME280;63257;55.082;38.772;2023-06-14T09:57:48;100169.41;;;22.90;30.35
71948;BME280;63257;55.082;38.772;2023-06-14T10:00:18;100163.66;;;23.03;31.38
71948;BME280;63257;55.082;38.772;2023-06-14T10:02:49;100157.94;;;23.06;30.31
71948;BME280;63257;55.082;38.772;2023-06-14T10:05:20;100162.09;;;23.00;31.03
71948;BME280;63257;55.082;38.772;2023-06-14T10:08:04;100157.44;;;23.11;29.83
71948;BME280;63257;55.082;38.772;2023-06-14T10:10:33;100157.34;;;22.94;30.93
71948;BME280;63257;55.082;38.772;2023-06-14T10:12:59;100144.63;;;22.78;30.57
71948;BME280;63257;55.082;38.772;2023-06-14T10:18:35;100139.59;;;23.28;30.57
71948;BME280;63257;55.082;38.772;2023-06-14T10:21:28;100131.16;;;23.23;30.90
71948;BME280;63257;55.082;38.772;2023-06-14T10:24:01;100143.41;;;23.51;30.61
71948;BME280;63257;55.082;38.772;2023-06-14T10:26:29;100131.59;;;23.44;30.24
71948;BME280;63257;55.082;38.772;2023-06-14T10:29:15;100135.91;;;23.11;29.75
71948;BME280;63257;55.082;38.772;2023-06-14T10:31:44;100137.94;;;23.09;30.27
71948;BME280;63257;55.082;38.772;2023-06-14T10:34:12;100109.13;;;23.01;30.72
71948;BME280;63257;55.082;38.772;2023-06-14T10:37:05;100123.81;;;23.33;30.69
71948;BME280;63257;55.082;38.772;2023-06-14T10:39:37;100106.38;;;23.19;29.81
71948;BME280;63257;55.082;38.772;2023-06-14T10:42:04;100120.63;;;23.37;30.42
71948;BME280;63257;55.082;38.772;2023-06-14T10:44:39;100120.03;;;23.60;31.04
71948;BME280;63257;55.082;38.772;2023-06-14T10:50:06;100128.13;;;23.60;29.77
71948;BME280;63257;55.082;38.772;2023-06-14T10:52:39;100126.91;;;23.89;30.27
71948;BME280;63257;55.082;38.772;2023-06-14T10:55:13;100125.47;;;24.11;30.03
71948;BME280;63257;55.082;38.772;2023-06-14T10:57:43;100126.84;;;24.24;29.18
71948;BME280;63257;55.082;38.772;2023-06-14T11:00:11;100112.31;;;24.16;28.84
71948;BME280;63257;55.082;38.772;2023-06-14T11:06:00;100121.28;;;24.50;27.97
71948;BME280;63257;55.082;38.772;2023-06-14T11:11:14;100117.06;;;24.55;28.43
71948;BME280;63257;55.082;38.772;2023-06-14T11:13:43;100118.59;;;24.58;27.87
71948;BME280;63257;55.082;38.772;2023-06-14T11:16:14;100114.56;;;24.70;27.77
71948;BME280;63257;55.082;38.772;2023-06-14T11:18:40;100106.69;;;25.25;26.87
71948;BME280;63257;55.082;38.772;2023-06-14T11:21:06;100108.94;;;25.69;26.52
71948;BME280;63257;55.082;38.772;2023-06-14T11:23:37;100095.28;;;25.94;25.22
71948;BME280;63257;55.082;38.772;2023-06-14T11:26:03;100091.31;;;26.28;25.89
71948;BME280;63257;55.082;38.772;2023-06-14T11:28:40;100098.44;;;26.90;25.35
71948;BME280;63257;55.082;38.772;2023-06-14T11:31:07;100087.31;;;27.00;25.27
71948;BME280;63257;55.082;38.772;2023-06-14T11:33:33;100074.63;;;27.46;24.76
71948;BME280;63257;55.082;38.772;2023-06-14T11:36:02;100069.75;;;27.56;22.95
71948;BME280;63257;55.082;38.772;2023-06-14T11:38:29;100084.59;;;27.97;23.69
71948;BME280;63257;55.082;38.772;2023-06-14T11:40:59;100073.66;;;28.26;22.78
71948;BME280;63257;55.082;38.772;2023-06-14T11:43:25;100063.06;;;28.60;23.07
71948;BME280;63257;55.082;38.772;2023-06-14T11:45:52;100076.84;;;28.80;21.62
71948;BME280;63257;55.082;38.772;2023-06-14T11:48:18;100078.91;;;28.78;22.47
71948;BME280;63257;55.082;38.772;2023-06-14T11:50:49;100076.09;;;28.93;22.04
71948;BME280;63257;55.082;38.772;2023-06-14T11:53:15;100079.34;;;29.17;21.74
71948;BME280;63257;55.082;38.772;2023-06-14T11:55:42;100077.97;;;29.27;21.61
71948;BME280;63257;55.082;38.772;2023-06-14T11:58:10;100075.25;;;29.69;22.12
71948;BME280;63257;55.082;38.772;2023-06-14T12:00:37;100059.78;;;29.76;20.68
71948;BME280;63257;55.082;38.772;2023-06-14T12:03:03;100070.44;;;29.78;21.91
71948;BME280;63257;55.082;38.772;2023-06-14T12:05:29;100069.38;;;29.72;21.59
71948;BME280;63257;55.082;38.772;2023-06-14T12:08:03;100071.47;;;29.77;21.31
71948;BME280;63257;55.082;38.772;2023-06-14T12:10:39;100067.41;;;30.08;20.55
71948;BME280;63257;55.082;38.772;2023-06-14T12:13:05;100068.28;;;30.49;20.31
71948;BME280;63257;55.082;38.772;2023-06-14T12:15:31;100069.50;;;30.26;20.25
71948;BME280;63257;55.082;38.772;2023-06-14T12:17:57;100072.03;;;30.68;20.00
71948;BME280;63257;55.082;38.772;2023-06-14T12:20:29;100057.00;;;30.58;19.67
71948;BME280;63257;55.082;38.772;2023-06-14T12:22:57;100061.47;;;29.29;19.82
71948;BME280;63257;55.082;38.772;2023-06-14T12:27:54;100050.81;;;28.64;20.68
71948;BME280;63257;55.082;38.772;2023-06-14T12:30:20;100063.38;;;28.65;21.14
71948;BME280;63257;55.082;38.772;2023-06-14T12:32:46;100051.25;;;29.31;20.30
71948;BME280;63257;55.082;38.772;2023-06-14T12:35:12;100054.56;;;28.91;20.69
71948;BME280;63257;55.082;38.772;2023-06-14T12:37:37;100045.78;;;28.89;20.84
71948;BME280;63257;55.082;38.772;2023-06-14T12:40:03;100050.31;;;28.82;21.61
71948;BME280;63257;55.082;38.772;2023-06-14T12:42:32;100045.09;;;28.31;21.83
71948;BME280;63257;55.082;38.772;2023-06-14T12:44:59;100038.09;;;28.43;22.18
71948;BME280;63257;55.082;38.772;2023-06-14T12:47:26;100035.75;;;29.32;21.63
71948;BME280;63257;55.082;38.772;2023-06-14T12:49:52;100040.63;;;30.05;21.41
71948;BME280;63257;55.082;38.772;2023-06-14T12:52:18;100037.69;;;30.26;20.74
71948;BME280;63257;55.082;38.772;2023-06-14T12:54:44;100037.28;;;30.29;20.70
71948;BME280;63257;55.082;38.772;2023-06-14T12:57:09;100033.97;;;29.59;20.59
71948;BME280;63257;55.082;38.772;2023-06-14T12:59:35;100025.78;;;29.39;20.98
71948;BME280;63257;55.082;38.772;2023-06-14T13:02:15;100034.34;;;29.42;21.18
71948;BME280;63257;55.082;38.772;2023-06-14T13:04:41;100036.09;;;29.57;21.35
71948;BME280;63257;55.082;38.772;2023-06-14T13:07:07;100021.34;;;29.93;20.78